Time;durP1;ratioP1;P1;durP2;ratioP2;P2;SDS_P1;SDS_P2;PMS_P1;PMS_P2;Temp;Humidity;BMP_temperature;BMP_pressure;BME280_temperature;BME280_humidity;BME280_pressure;Samples;Min_cycle;Max_cycle;Signal;HPM_P1;HPM_P2
2021/07/28 00:00:36;;;;;;;8.13;6.20;;;;;;;;;;5013060;28;20453;-70
2021/07/28 00:03:02;;;;;;;10.80;5.80;;;;;;;;;;5011200;28;20907;-69
2021/07/28 00:05:28;;;;;;;9.10;7.10;;;;;;;;;;5012650;28;20423;-69
2021/07/28 00:07:54;;;;;;;8.23;5.80;;;;;;;;;;5011713;28;20551;-69
2021/07/28 00:10:20;;;;;;;11.90;6.60;;;;;;;;;;5012432;28;20803;-70
2021/07/28 00:12:46;;;;;;;7.27;5.67;;;;;;;;;;5012670;28;20404;-70
2021/07/28 00:15:12;;;;;;;6.70;5.57;;;;;;;;;;5011467;28;20427;-70
2021/07/28 00:17:47;;;;;;;6.43;5.27;;;;;;;;;;5012741;28;20473;-70
2021/07/28 00:23:13;;;;;;;10.07;6.20;;;;;;;;;;5011915;28;20454;-70
2021/07/28 00:23:14;;;;;;;8.20;5.47;;;;;;;;;;5011312;28;20591;-69
2021/07/28 00:25:40;;;;;;;8.50;5.80;;;;;;;;;;5012980;28;20427;-70
2021/07/28 00:28:06;;;;;;;8.30;5.73;;;;;;;;;;5011664;28;20391;-69
2021/07/28 00:30:33;;;;;;;8.77;6.10;;;;;;;;;;5012881;28;20823;-70
2021/07/28 00:32:59;;;;;;;6.40;5.70;;;;;;;;;;5010441;28;20418;-69
2021/07/28 00:35:25;;;;;;;8.17;5.50;;;;;;;;;;4992748;28;20494;-70
2021/07/28 00:37:51;;;;;;;6.13;5.40;;;;;;;;;;4992486;28;20409;-69
2021/07/28 00:40:17;;;;;;;10.50;5.67;;;;;;;;;;5012349;28;20475;-70
2021/07/28 00:42:44;;;;;;;6.70;5.27;;;;;;;;;;5011625;28;20427;-69
2021/07/28 00:45:10;;;;;;;6.90;5.47;;;;;;;;;;4994370;28;20435;-69
2021/07/28 00:47:36;;;;;;;5.53;4.47;;;;;;;;;;4995178;28;20404;-70
2021/07/28 00:50:03;;;;;;;4.87;3.53;;;;;;;;;;5011822;28;20989;-70
2021/07/28 00:52:29;;;;;;;6.20;4.07;;;;;;;;;;5016118;28;20495;-70
2021/07/28 00:54:56;;;;;;;4.60;3.80;;;;;;;;;;5014693;28;20489;-70
2021/07/28 00:57:22;;;;;;;10.43;4.63;;;;;;;;;;5015653;28;20447;-70
2021/07/28 00:59:48;;;;;;;7.30;4.27;;;;;;;;;;5001598;28;20964;-69
2021/07/28 01:02:14;;;;;;;5.60;4.23;;;;;;;;;;4996062;28;20414;-70
2021/07/28 01:04:40;;;;;;;5.10;4.23;;;;;;;;;;5007821;28;20423;-70
2021/07/28 01:07:07;;;;;;;5.00;3.97;;;;;;;;;;5015619;28;20415;-70
2021/07/28 01:09:33;;;;;;;5.30;4.20;;;;;;;;;;5005116;28;20462;-70
2021/07/28 01:12:02;;;;;;;5.67;4.17;;;;;;;;;;4995938;28;20408;-70
2021/07/28 01:14:28;;;;;;;3.83;3.33;;;;;;;;;;5000908;28;20514;-70
2021/07/28 01:16:55;;;;;;;6.37;4.50;;;;;;;;;;5012287;28;20502;-69
2021/07/28 01:19:23;;;;;;;4.73;3.90;;;;;;;;;;5010195;28;20465;-69
2021/07/28 01:21:50;;;;;;;5.37;4.50;;;;;;;;;;4995699;28;20401;-70
2021/07/28 01:24:16;;;;;;;6.23;4.00;;;;;;;;;;4998781;28;20435;-69
2021/07/28 01:26:44;;;;;;;5.67;3.60;;;;;;;;;;5015245;28;20515;-69
2021/07/28 01:29:13;;;;;;;5.83;4.20;;;;;;;;;;5014165;28;20932;-69
2021/07/28 01:31:40;;;;;;;7.60;4.87;;;;;;;;;;5015225;28;20795;-69
2021/07/28 01:34:07;;;;;;;13.93;5.57;;;;;;;;;;5014405;28;20408;-70
2021/07/28 01:36:34;;;;;;;7.30;4.40;;;;;;;;;;5015267;28;20444;-70
2021/07/28 01:39:00;;;;;;;6.53;4.20;;;;;;;;;;5013773;28;20448;-70
2021/07/28 01:41:26;;;;;;;6.67;5.47;;;;;;;;;;4995380;28;20442;-69
2021/07/28 01:43:53;;;;;;;5.90;4.70;;;;;;;;;;4995133;28;20427;-69
2021/07/28 01:46:19;;;;;;;5.00;4.20;;;;;;;;;;5014047;28;20451;-69
2021/07/28 01:48:45;;;;;;;8.50;5.07;;;;;;;;;;5013255;28;20884;-70
2021/07/28 01:51:11;;;;;;;7.40;4.90;;;;;;;;;;5014327;28;20482;-69
2021/07/28 01:53:37;;;;;;;10.60;5.30;;;;;;;;;;5014745;28;20820;-70
2021/07/28 01:56:05;;;;;;;5.87;4.70;;;;;;;;;;5012937;28;20509;-70
2021/07/28 01:58:31;;;;;;;6.37;4.80;;;;;;;;;;5014746;28;20455;-69
2021/07/28 02:00:57;;;;;;;4.97;4.20;;;;;;;;;;4998083;28;20472;-69
2021/07/28 02:03:23;;;;;;;7.40;5.10;;;;;;;;;;5009095;28;20422;-70
2021/07/28 02:05:49;;;;;;;6.03;4.10;;;;;;;;;;5013738;28;20458;-69
2021/07/28 02:08:16;;;;;;;4.53;4.03;;;;;;;;;;5003380;28;20460;-69
2021/07/28 02:10:44;;;;;;;4.80;4.27;;;;;;;;;;5007597;28;20441;-70
2021/07/28 02:13:10;;;;;;;5.13;3.80;;;;;;;;;;5012602;28;20796;-69
2021/07/28 02:15:36;;;;;;;6.07;4.53;;;;;;;;;;5013056;28;21071;-69
2021/07/28 02:18:02;;;;;;;5.17;4.00;;;;;;;;;;5014408;28;20877;-70
2021/07/28 02:20:29;;;;;;;5.20;3.70;;;;;;;;;;5013024;28;20523;-70
2021/07/28 02:22:55;;;;;;;7.40;4.17;;;;;;;;;;5014302;28;20453;-70
2021/07/28 02:25:21;;;;;;;6.43;4.43;;;;;;;;;;5013258;28;20466;-70
2021/07/28 02:27:48;;;;;;;4.90;3.87;;;;;;;;;;5012845;28;20404;-69
2021/07/28 02:30:16;;;;;;;5.50;3.00;;;;;;;;;;5011235;28;20427;-69
2021/07/28 02:32:43;;;;;;;6.00;3.97;;;;;;;;;;5014000;28;20884;-69
2021/07/28 02:35:09;;;;;;;4.60;3.53;;;;;;;;;;5013103;28;20652;-69
2021/07/28 02:37:36;;;;;;;6.67;4.10;;;;;;;;;;5014126;28;20442;-69
2021/07/28 02:40:03;;;;;;;6.20;4.10;;;;;;;;;;5009454;28;20828;-69
2021/07/28 02:42:29;;;;;;;4.60;4.07;;;;;;;;;;5012563;28;20982;-69
2021/07/28 02:44:55;;;;;;;5.40;3.53;;;;;;;;;;5012660;28;20806;-70
2021/07/28 02:47:21;;;;;;;5.87;3.93;;;;;;;;;;5013720;28;20427;-68
2021/07/28 02:49:47;;;;;;;5.50;3.90;;;;;;;;;;5012737;28;20432;-68
2021/07/28 02:52:13;;;;;;;8.27;4.10;;;;;;;;;;5013994;28;20486;-69
2021/07/28 02:54:39;;;;;;;6.60;4.60;;;;;;;;;;5011241;28;20964;-68
2021/07/28 02:57:05;;;;;;;6.70;4.70;;;;;;;;;;5013393;28;20478;-69
2021/07/28 02:59:31;;;;;;;5.20;3.17;;;;;;;;;;5012453;28;20497;-68
2021/07/28 03:01:57;;;;;;;15.40;4.40;;;;;;;;;;5013651;28;20404;-69
2021/07/28 03:04:23;;;;;;;7.20;4.80;;;;;;;;;;5012844;28;20794;-69
2021/07/28 03:06:49;;;;;;;5.90;3.60;;;;;;;;;;5013181;28;20427;-69
2021/07/28 03:09:15;;;;;;;4.47;3.47;;;;;;;;;;5013120;28;20404;-69
2021/07/28 03:11:41;;;;;;;5.23;3.60;;;;;;;;;;4993854;28;20423;-69
2021/07/28 03:14:07;;;;;;;5.23;3.87;;;;;;;;;;4993948;28;20405;-69
2021/07/28 03:16:33;;;;;;;5.40;4.17;;;;;;;;;;5012212;28;20455;-69
2021/07/28 03:18:59;;;;;;;5.13;3.90;;;;;;;;;;5010165;28;22363;-69
2021/07/28 03:21:25;;;;;;;4.93;3.53;;;;;;;;;;5003957;28;20440;-69
2021/07/28 03:23:51;;;;;;;5.27;4.23;;;;;;;;;;4993878;28;20475;-69
2021/07/28 03:26:17;;;;;;;9.40;3.40;;;;;;;;;;4993368;28;20452;-69
2021/07/28 03:28:43;;;;;;;7.47;3.83;;;;;;;;;;4995291;28;20919;-68
2021/07/28 03:31:10;;;;;;;6.83;4.30;;;;;;;;;;5011543;28;20427;-69
2021/07/28 03:33:36;;;;;;;5.23;3.40;;;;;;;;;;5013085;28;20400;-69
2021/07/28 03:36:02;;;;;;;4.87;3.83;;;;;;;;;;5000105;28;20944;-69
2021/07/28 03:38:28;;;;;;;7.03;4.23;;;;;;;;;;4993586;28;20775;-69
2021/07/28 03:40:54;;;;;;;6.77;4.40;;;;;;;;;;5004553;28;20467;-69
2021/07/28 03:43:20;;;;;;;7.33;4.87;;;;;;;;;;5013396;28;20850;-69
2021/07/28 03:45:46;;;;;;;5.70;4.53;;;;;;;;;;5002192;28;20534;-68
2021/07/28 03:48:12;;;;;;;9.90;4.77;;;;;;;;;;4999733;28;20447;-69
2021/07/28 03:50:38;;;;;;;5.83;5.10;;;;;;;;;;5012003;28;20463;-69
2021/07/28 03:53:05;;;;;;;13.33;4.87;;;;;;;;;;5011740;28;20415;-69
2021/07/28 03:55:31;;;;;;;8.20;5.10;;;;;;;;;;5004514;28;20567;-69
2021/07/28 03:57:57;;;;;;;6.87;5.00;;;;;;;;;;4993389;28;20397;-70
2021/07/28 04:00:23;;;;;;;11.10;6.77;;;;;;;;;;4997452;28;20459;-68
2021/07/28 04:02:49;;;;;;;7.50;4.87;;;;;;;;;;5012848;28;20459;-69
2021/07/28 04:05:16;;;;;;;9.47;5.53;;;;;;;;;;5012168;28;20424;-69
2021/07/28 04:07:42;;;;;;;7.63;5.67;;;;;;;;;;5012893;28;20408;-69
2021/07/28 04:10:09;;;;;;;7.40;5.50;;;;;;;;;;5012040;28;20432;-68
2021/07/28 04:12:35;;;;;;;7.20;6.07;;;;;;;;;;5012842;28;20486;-69
2021/07/28 04:15:01;;;;;;;7.97;6.10;;;;;;;;;;5011768;28;20440;-69
2021/07/28 04:17:28;;;;;;;8.27;6.33;;;;;;;;;;5012871;28;20407;-69
2021/07/28 04:19:54;;;;;;;9.80;6.70;;;;;;;;;;5011343;28;20493;-68
2021/07/28 04:22:20;;;;;;;9.20;5.80;;;;;;;;;;4998825;28;20883;-69
2021/07/28 04:24:46;;;;;;;8.17;5.87;;;;;;;;;;4997051;28;20404;-69
2021/07/28 04:27:12;;;;;;;9.80;6.40;;;;;;;;;;4996816;28;20507;-70
2021/07/28 04:29:39;;;;;;;6.90;6.20;;;;;;;;;;4996935;28;20401;-70
2021/07/28 04:32:05;;;;;;;7.20;5.80;;;;;;;;;;5010305;28;20912;-70
2021/07/28 04:34:31;;;;;;;7.47;6.30;;;;;;;;;;5016395;28;20904;-70
2021/07/28 04:36:57;;;;;;;8.60;5.57;;;;;;;;;;5002931;28;20455;-70
2021/07/28 04:39:23;;;;;;;7.87;6.10;;;;;;;;;;4996536;28;20452;-70
2021/07/28 04:41:49;;;;;;;9.20;6.00;;;;;;;;;;4996509;28;20435;-70
2021/07/28 04:44:15;;;;;;;9.47;6.03;;;;;;;;;;4996519;28;20428;-69
2021/07/28 04:46:41;;;;;;;8.97;6.30;;;;;;;;;;4996329;28;20483;-70
2021/07/28 04:49:07;;;;;;;8.97;6.23;;;;;;;;;;5012349;28;20431;-70
2021/07/28 04:51:33;;;;;;;8.50;5.43;;;;;;;;;;5010467;28;20434;-70
2021/07/28 04:53:59;;;;;;;8.77;5.13;;;;;;;;;;5015771;28;20892;-70
2021/07/28 04:56:25;;;;;;;7.43;5.50;;;;;;;;;;5007440;28;21037;-70
2021/07/28 04:58:51;;;;;;;7.80;5.40;;;;;;;;;;4996386;28;20752;-70
2021/07/28 05:01:17;;;;;;;8.13;5.40;;;;;;;;;;5001861;28;20434;-69
2021/07/28 05:03:43;;;;;;;7.20;4.13;;;;;;;;;;5016078;28;20423;-70
2021/07/28 05:06:09;;;;;;;5.10;4.17;;;;;;;;;;5014497;28;20990;-69
2021/07/28 05:08:35;;;;;;;6.93;5.03;;;;;;;;;;5015835;28;20442;-70
2021/07/28 05:11:01;;;;;;;6.23;4.40;;;;;;;;;;5014845;28;20427;-70
2021/07/28 05:13:27;;;;;;;6.20;3.73;;;;;;;;;;5015648;28;20462;-70
2021/07/28 05:15:53;;;;;;;6.00;4.70;;;;;;;;;;5012901;28;20482;-70
2021/07/28 05:18:21;;;;;;;6.30;4.53;;;;;;;;;;4995904;28;20433;-70
2021/07/28 05:20:47;;;;;;;4.33;3.47;;;;;;;;;;4995437;28;20964;-70
2021/07/28 05:23:13;;;;;;;4.90;3.50;;;;;;;;;;4995646;28;20580;-70
2021/07/28 05:25:39;;;;;;;4.50;3.60;;;;;;;;;;4995316;28;20444;-71
2021/07/28 05:28:06;;;;;;;6.63;3.90;;;;;;;;;;4995861;28;20474;-70
2021/07/28 05:30:32;;;;;;;4.83;3.97;;;;;;;;;;4995731;28;20408;-70
2021/07/28 05:32:58;;;;;;;5.07;3.70;;;;;;;;;;5013441;28;20485;-70
2021/07/28 05:35:24;;;;;;;6.00;3.90;;;;;;;;;;5015009;28;20420;-70
2021/07/28 05:37:57;;;;;;;5.67;3.90;;;;;;;;;;5014038;28;20435;-70
2021/07/28 05:40:23;;;;;;;6.87;3.80;;;;;;;;;;5015037;28;20455;-70
2021/07/28 05:42:49;;;;;;;6.10;3.77;;;;;;;;;;5013415;28;20423;-70
2021/07/28 05:45:15;;;;;;;4.47;3.87;;;;;;;;;;5013779;28;20404;-70
2021/07/28 05:47:43;;;;;;;4.43;3.70;;;;;;;;;;5013893;28;20431;-70
2021/07/28 05:50:10;;;;;;;7.67;5.13;;;;;;;;;;5014985;28;20457;-71
2021/07/28 05:52:36;;;;;;;5.47;3.33;;;;;;;;;;5012194;28;20506;-70
2021/07/28 05:55:02;;;;;;;8.47;3.13;;;;;;;;;;5014583;28;20487;-70
2021/07/28 05:57:28;;;;;;;4.40;3.90;;;;;;;;;;5013260;28;20475;-70
2021/07/28 05:59:54;;;;;;;5.90;4.40;;;;;;;;;;5014546;28;20512;-71
2021/07/28 06:02:20;;;;;;;4.17;3.33;;;;;;;;;;5005026;28;20461;-70
2021/07/28 06:04:46;;;;;;;5.10;3.47;;;;;;;;;;4995295;28;20424;-70
2021/07/28 06:07:12;;;;;;;7.67;3.63;;;;;;;;;;4993340;28;20452;-70
2021/07/28 06:09:38;;;;;;;9.07;5.27;;;;;;;;;;4994918;28;20425;-71
2021/07/28 06:12:05;;;;;;;7.60;4.77;;;;;;;;;;5004118;28;20462;-71
2021/07/28 06:14:31;;;;;;;4.67;3.57;;;;;;;;;;5014489;28;20411;-70
2021/07/28 06:16:57;;;;;;;6.67;4.80;;;;;;;;;;5013781;28;20861;-71
2021/07/28 06:19:23;;;;;;;5.90;4.77;;;;;;;;;;5014439;28;20446;-70
2021/07/28 06:21:49;;;;;;;6.93;5.10;;;;;;;;;;5013071;28;20855;-71
2021/07/28 06:24:15;;;;;;;8.60;5.00;;;;;;;;;;5014475;28;20904;-70
2021/07/28 06:26:41;;;;;;;6.57;4.63;;;;;;;;;;5004825;28;20449;-70
2021/07/28 06:29:07;;;;;;;7.03;5.00;;;;;;;;;;4994769;28;20408;-70
2021/07/28 06:31:33;;;;;;;5.47;4.57;;;;;;;;;;4998033;28;20526;-71
2021/07/28 06:33:59;;;;;;;7.20;4.67;;;;;;;;;;5014221;28;20431;-70
2021/07/28 06:36:25;;;;;;;4.53;3.50;;;;;;;;;;5010412;28;20447;-70
2021/07/28 06:38:51;;;;;;;6.00;3.90;;;;;;;;;;4994476;28;20806;-71
2021/07/28 06:41:17;;;;;;;4.73;3.87;;;;;;;;;;4994570;28;20956;-70
2021/07/28 06:43:43;;;;;;;7.50;4.40;;;;;;;;;;4993783;28;20416;-71
2021/07/28 06:46:09;;;;;;;7.10;4.90;;;;;;;;;;4993700;28;20421;-70
2021/07/28 06:48:36;;;;;;;6.83;5.10;;;;;;;;;;5013597;28;20405;-70
2021/07/28 06:51:02;;;;;;;7.70;4.73;;;;;;;;;;5009810;28;20423;-71
2021/07/28 06:53:28;;;;;;;4.80;3.97;;;;;;;;;;5009805;28;20427;-70
2021/07/28 06:55:54;;;;;;;8.83;5.30;;;;;;;;;;5011055;28;20518;-72
2021/07/28 06:58:20;;;;;;;7.77;4.63;;;;;;;;;;5011748;28;20431;-72
2021/07/28 07:00:47;;;;;;;6.80;4.50;;;;;;;;;;5005106;28;20487;-68
2021/07/28 07:03:13;;;;;;;6.83;4.60;;;;;;;;;;5009656;28;20427;-68
2021/07/28 07:05:39;;;;;;;6.83;5.53;;;;;;;;;;5012841;28;20432;-71
2021/07/28 07:08:05;;;;;;;6.20;5.03;;;;;;;;;;5011722;28;20423;-70
2021/07/28 07:10:31;;;;;;;6.40;4.80;;;;;;;;;;5011806;28;20517;-69
2021/07/28 07:12:57;;;;;;;7.80;4.43;;;;;;;;;;5010487;28;20510;-68
2021/07/28 07:15:23;;;;;;;5.83;4.70;;;;;;;;;;5011348;28;21110;-71
2021/07/28 07:17:53;;;;;;;4.80;4.07;;;;;;;;;;5012110;28;20526;-72
2021/07/28 07:20:19;;;;;;;6.33;4.80;;;;;;;;;;5012152;28;20489;-66
2021/07/28 07:22:45;;;;;;;7.80;4.57;;;;;;;;;;5011840;28;20755;-68
2021/07/28 07:25:11;;;;;;;7.27;4.30;;;;;;;;;;5010915;28;20551;-70
2021/07/28 07:27:40;;;;;;;7.50;4.67;;;;;;;;;;5007656;28;20439;-68
2021/07/28 07:30:06;;;;;;;8.17;4.93;;;;;;;;;;5003136;28;20419;-70
2021/07/28 07:32:32;;;;;;;6.67;4.53;;;;;;;;;;5009449;28;20430;-68
2021/07/28 07:34:59;;;;;;;7.70;4.50;;;;;;;;;;5009169;28;20419;-68
2021/07/28 07:37:25;;;;;;;5.57;4.83;;;;;;;;;;5005068;28;20939;-69
2021/07/28 07:39:51;;;;;;;6.40;4.90;;;;;;;;;;5012297;28;20459;-69
2021/07/28 07:42:18;;;;;;;5.93;4.73;;;;;;;;;;5004361;28;20526;-72
2021/07/28 07:44:45;;;;;;;5.33;4.60;;;;;;;;;;5010216;28;20419;-71
2021/07/28 07:47:12;;;;;;;8.17;5.43;;;;;;;;;;5005798;28;20455;-70
2021/07/28 07:49:38;;;;;;;11.93;5.37;;;;;;;;;;5011068;28;20437;-71
2021/07/28 07:52:04;;;;;;;11.70;5.97;;;;;;;;;;5009722;28;20462;-68
2021/07/28 07:54:30;;;;;;;9.37;5.27;;;;;;;;;;5011734;28;20919;-69
2021/07/28 07:56:56;;;;;;;6.70;4.67;;;;;;;;;;5000223;28;20525;-72
2021/07/28 07:59:22;;;;;;;8.87;5.57;;;;;;;;;;5011082;28;20470;-69
2021/07/28 08:01:48;;;;;;;8.07;6.13;;;;;;;;;;5013290;28;20438;-68
2021/07/28 08:04:15;;;;;;;5.63;5.03;;;;;;;;;;5012881;28;20430;-69
2021/07/28 08:06:41;;;;;;;6.10;4.77;;;;;;;;;;5014025;28;20446;-67
2021/07/28 08:09:07;;;;;;;10.13;5.80;;;;;;;;;;5011974;28;20434;-67
2021/07/28 08:11:33;;;;;;;8.00;5.90;;;;;;;;;;5014175;28;20415;-68
2021/07/28 08:13:59;;;;;;;8.13;6.30;;;;;;;;;;5013834;28;20928;-68
2021/07/28 08:16:25;;;;;;;8.73;6.77;;;;;;;;;;5012103;28;20458;-67
2021/07/28 08:18:51;;;;;;;7.90;6.00;;;;;;;;;;5020884;23;20578;-67
2021/07/28 08:21:18;;;;;;;11.73;7.30;;;;;;;;;;4990482;28;20419;-69
2021/07/28 08:23:45;;;;;;;10.40;7.23;;;;;;;;;;4994967;28;20914;-68
2021/07/28 08:26:15;;;;;;;9.57;6.53;;;;;;;;;;4996358;28;20412;-68
2021/07/28 08:28:41;;;;;;;9.60;6.90;;;;;;;;;;4995440;28;20440;-67
2021/07/28 08:31:07;;;;;;;11.40;7.30;;;;;;;;;;4994527;28;20420;-67
2021/07/28 08:33:34;;;;;;;8.80;6.60;;;;;;;;;;4995217;28;20443;-67
2021/07/28 08:36:03;;;;;;;11.03;8.30;;;;;;;;;;4995373;28;20911;-67
2021/07/28 08:38:29;;;;;;;10.53;8.20;;;;;;;;;;4995121;28;20451;-67
2021/07/28 08:41:00;;;;;;;15.83;8.00;;;;;;;;;;4995227;28;20444;-67
2021/07/28 08:43:28;;;;;;;14.10;8.43;;;;;;;;;;4995669;28;20439;-67
2021/07/28 08:45:56;;;;;;;10.33;8.30;;;;;;;;;;4997521;28;20432;-68
2021/07/28 08:48:23;;;;;;;8.93;7.57;;;;;;;;;;4994880;28;21036;-67
2021/07/28 08:50:49;;;;;;;14.47;9.07;;;;;;;;;;4995653;28;20987;-67
2021/07/28 08:53:15;;;;;;;13.50;8.07;;;;;;;;;;4994454;28;20490;-69
2021/07/28 08:55:42;;;;;;;13.30;8.67;;;;;;;;;;4996658;28;20877;-68
2021/07/28 08:58:09;;;;;;;12.30;7.63;;;;;;;;;;4995292;28;20540;-69
2021/07/28 09:00:45;;;;;;;14.90;10.63;;;;;;;;;;4991462;28;20542;-69
2021/07/28 09:03:11;;;;;;;12.30;9.03;;;;;;;;;;4991599;28;20459;-68
2021/07/28 09:05:38;;;;;;;12.80;9.63;;;;;;;;;;4995958;28;20504;-68
2021/07/28 09:08:04;;;;;;;14.20;9.83;;;;;;;;;;4998359;28;20509;-68
2021/07/28 09:10:30;;;;;;;13.50;11.27;;;;;;;;;;4996822;28;20835;-68
2021/07/28 09:12:56;;;;;;;14.70;11.33;;;;;;;;;;4996055;28;20432;-68
2021/07/28 09:15:22;;;;;;;16.07;12.43;;;;;;;;;;4996447;28;20499;-67
2021/07/28 09:17:50;;;;;;;14.30;11.07;;;;;;;;;;4994623;28;20470;-68
2021/07/28 09:20:23;;;;;;;14.90;10.97;;;;;;;;;;4996070;28;20964;-68
2021/07/28 09:22:49;;;;;;;18.67;13.10;;;;;;;;;;4993704;28;20522;-68
2021/07/28 09:25:34;;;;;;;16.83;11.53;;;;;;;;;;4996431;28;20422;-68
2021/07/28 09:28:00;;;;;;;14.33;11.23;;;;;;;;;;4994457;28;20453;-68
2021/07/28 09:30:26;;;;;;;18.70;12.50;;;;;;;;;;4995163;28;20412;-69
2021/07/28 09:32:59;;;;;;;16.20;11.60;;;;;;;;;;4993535;28;20530;-70
2021/07/28 09:35:45;;;;;;;18.77;12.37;;;;;;;;;;4995885;28;20511;-70
2021/07/28 09:38:11;;;;;;;17.03;11.50;;;;;;;;;;4995531;28;20466;-70
2021/07/28 09:40:37;;;;;;;15.90;11.20;;;;;;;;;;4996940;28;20466;-69
2021/07/28 09:43:04;;;;;;;17.70;12.10;;;;;;;;;;4994526;28;20428;-70
2021/07/28 09:45:30;;;;;;;18.20;11.57;;;;;;;;;;4995453;28;20417;-70
2021/07/28 09:47:56;;;;;;;18.10;14.50;;;;;;;;;;4994002;28;20828;-72
2021/07/28 09:50:22;;;;;;;20.20;12.90;;;;;;;;;;4994925;28;20503;-71
2021/07/28 09:52:52;;;;;;;16.97;12.57;;;;;;;;;;4993770;28;20492;-70
2021/07/28 09:55:27;;;;;;;14.07;9.93;;;;;;;;;;4995248;28;20433;-70
2021/07/28 09:57:57;;;;;;;15.97;10.70;;;;;;;;;;4992005;28;20450;-71
2021/07/28 10:00:32;;;;;;;15.63;12.10;;;;;;;;;;4991768;28;20495;-71
2021/07/28 10:03:00;;;;;;;17.73;13.70;;;;;;;;;;4987732;28;20456;-71
2021/07/28 10:05:26;;;;;;;18.10;12.73;;;;;;;;;;4994871;28;20432;-71
2021/07/28 10:07:56;;;;;;;21.40;12.67;;;;;;;;;;4988820;28;20453;-71
2021/07/28 10:10:22;;;;;;;12.77;9.47;;;;;;;;;;4993548;28;20466;-70
2021/07/28 10:12:49;;;;;;;14.40;9.50;;;;;;;;;;4993825;28;20966;-71
2021/07/28 10:15:15;;;;;;;11.40;8.00;;;;;;;;;;4994649;28;20455;-70
2021/07/28 10:17:42;;;;;;;10.10;9.00;;;;;;;;;;4994646;28;20537;-71
2021/07/28 10:20:12;;;;;;;11.97;7.90;;;;;;;;;;4993188;28;20452;-69
2021/07/28 10:22:39;;;;;;;13.77;9.73;;;;;;;;;;4993765;28;20776;-70
2021/07/28 10:25:08;;;;;;;13.80;8.30;;;;;;;;;;4992173;28;20861;-71
2021/07/28 10:27:48;;;;;;;12.60;9.00;;;;;;;;;;4994400;28;20477;-70
2021/07/28 10:30:15;;;;;;;13.80;10.00;;;;;;;;;;4992656;28;20936;-70
2021/07/28 10:32:41;;;;;;;16.30;10.80;;;;;;;;;;4993208;28;20415;-71
2021/07/28 10:35:13;;;;;;;14.90;11.20;;;;;;;;;;4993301;28;20432;-71
2021/07/28 10:37:39;;;;;;;12.30;10.20;;;;;;;;;;4994455;28;20515;-71
2021/07/28 10:40:05;;;;;;;13.33;9.30;;;;;;;;;;4992551;28;20829;-71
2021/07/28 10:42:31;;;;;;;14.90;9.50;;;;;;;;;;4992897;28;20425;-70
2021/07/28 10:44:57;;;;;;;15.60;10.60;;;;;;;;;;4991922;28;20953;-70
2021/07/28 10:47:42;;;;;;;12.17;10.10;;;;;;;;;;4992374;28;20429;-71
2021/07/28 10:50:25;;;;;;;14.47;9.90;;;;;;;;;;4988781;28;20550;-71
2021/07/28 10:53:04;;;;;;;10.63;8.70;;;;;;;;;;4993045;28;20432;-70
2021/07/28 10:55:30;;;;;;;12.23;9.40;;;;;;;;;;4987776;28;20870;-70
2021/07/28 10:57:56;;;;;;;9.97;8.07;;;;;;;;;;4993070;28;20447;-71
2021/07/28 11:00:37;;;;;;;10.57;7.20;;;;;;;;;;4986736;28;20464;-70
2021/07/28 11:03:04;;;;;;;10.13;7.30;;;;;;;;;;4984820;28;20425;-71
2021/07/28 11:05:40;;;;;;;9.13;6.80;;;;;;;;;;4994671;28;20936;-70
2021/07/28 11:08:07;;;;;;;9.57;6.60;;;;;;;;;;4996069;28;20515;-71
2021/07/28 11:10:52;;;;;;;10.60;7.30;;;;;;;;;;4994368;28;20448;-70
2021/07/28 11:13:21;;;;;;;8.83;7.43;;;;;;;;;;4992839;28;20440;-70
2021/07/28 11:15:51;;;;;;;8.90;7.57;;;;;;;;;;5006998;28;20424;-71
2021/07/28 11:18:17;;;;;;;13.67;9.50;;;;;;;;;;4990922;28;20503;-70
2021/07/28 11:20:44;;;;;;;11.80;8.00;;;;;;;;;;4992326;28;20460;-70
2021/07/28 11:23:25;;;;;;;13.13;9.70;;;;;;;;;;4992669;28;20919;-70
2021/07/28 11:25:52;;;;;;;15.07;9.73;;;;;;;;;;4991615;28;20944;-70
2021/07/28 11:28:22;;;;;;;13.00;9.10;;;;;;;;;;4990897;28;20498;-70
2021/07/28 11:31:01;;;;;;;9.33;6.80;;;;;;;;;;4992441;28;20416;-70
2021/07/28 11:33:31;;;;;;;10.30;7.00;;;;;;;;;;4991611;28;20495;-70
2021/07/28 11:35:58;;;;;;;7.43;6.63;;;;;;;;;;4990611;28;20420;-72
2021/07/28 11:38:25;;;;;;;8.13;6.47;;;;;;;;;;4990562;28;20476;-69
2021/07/28 11:41:00;;;;;;;7.67;5.53;;;;;;;;;;4992755;28;20984;-68
2021/07/28 11:43:34;;;;;;;6.67;5.27;;;;;;;;;;4990381;28;20722;-68
2021/07/28 11:46:01;;;;;;;6.10;5.50;;;;;;;;;;4991561;28;20420;-69
2021/07/28 11:48:28;;;;;;;6.90;5.43;;;;;;;;;;4990859;28;21078;-70
2021/07/28 11:50:54;;;;;;;6.40;5.23;;;;;;;;;;4992932;28;20550;-70
2021/07/28 11:53:26;;;;;;;7.43;5.90;;;;;;;;;;4990191;28;20420;-69
2021/07/28 11:56:05;;;;;;;8.30;6.33;;;;;;;;;;4995865;28;20495;-70
2021/07/28 11:58:31;;;;;;;5.80;5.20;;;;;;;;;;4989003;28;20574;-70
2021/07/28 12:00:57;;;;;;;6.67;5.87;;;;;;;;;;4990771;28;20464;-70
2021/07/28 12:03:24;;;;;;;5.93;4.67;;;;;;;;;;4988803;28;20924;-70
2021/07/28 12:05:59;;;;;;;8.20;5.90;;;;;;;;;;4987228;28;20456;-69
2021/07/28 12:08:36;;;;;;;6.50;5.23;;;;;;;;;;4987778;28;20439;-69
2021/07/28 12:11:02;;;;;;;6.60;4.90;;;;;;;;;;4992071;28;20926;-70
2021/07/28 12:13:39;;;;;;;7.63;5.87;;;;;;;;;;4991323;28;20412;-71
2021/07/28 12:16:05;;;;;;;7.80;5.13;;;;;;;;;;4989442;28;21183;-70
2021/07/28 12:18:49;;;;;;;7.23;4.97;;;;;;;;;;4991162;28;20551;-70
2021/07/28 12:21:15;;;;;;;5.50;4.73;;;;;;;;;;4991273;28;20495;-70
2021/07/28 12:23:54;;;;;;;5.93;5.33;;;;;;;;;;4989765;28;20425;-70
2021/07/28 12:26:44;;;;;;;5.70;4.97;;;;;;;;;;4991252;28;20428;-70
2021/07/28 12:29:10;;;;;;;6.60;4.93;;;;;;;;;;4988618;28;20503;-70
2021/07/28 12:31:36;;;;;;;7.40;6.20;;;;;;;;;;4992675;28;20545;-69
2021/07/28 12:34:21;;;;;;;7.13;5.40;;;;;;;;;;4991054;28;20420;-70
2021/07/28 12:36:47;;;;;;;6.80;5.07;;;;;;;;;;5007085;28;20404;-71
2021/07/28 12:39:13;;;;;;;7.13;5.10;;;;;;;;;;4990927;28;20994;-70
2021/07/28 12:41:39;;;;;;;6.77;5.13;;;;;;;;;;4992594;28;20416;-70
2021/07/28 12:44:05;;;;;;;7.80;4.23;;;;;;;;;;4994171;28;20453;-71
2021/07/28 12:46:31;;;;;;;4.70;4.20;;;;;;;;;;4994624;28;20408;-71
2021/07/28 12:48:57;;;;;;;9.30;4.67;;;;;;;;;;4994179;28;20816;-70
2021/07/28 12:51:23;;;;;;;5.50;4.90;;;;;;;;;;4994583;28;20446;-70
2021/07/28 12:53:49;;;;;;;5.03;4.53;;;;;;;;;;4994078;28;20524;-70
2021/07/28 12:56:15;;;;;;;8.43;4.87;;;;;;;;;;4992123;28;20467;-70
2021/07/28 12:58:41;;;;;;;6.10;4.40;;;;;;;;;;4992379;28;20472;-70
2021/07/28 13:01:07;;;;;;;5.53;4.10;;;;;;;;;;4992397;28;20546;-70
2021/07/28 13:03:37;;;;;;;5.77;3.63;;;;;;;;;;4994106;28;20442;-70
2021/07/28 13:06:12;;;;;;;4.93;3.40;;;;;;;;;;4994482;28;20416;-70
2021/07/28 13:08:38;;;;;;;4.67;3.80;;;;;;;;;;4993702;28;20435;-69
2021/07/28 13:11:04;;;;;;;5.37;4.40;;;;;;;;;;4992197;28;20435;-69
2021/07/28 13:13:30;;;;;;;6.40;5.13;;;;;;;;;;4994413;28;20412;-69
2021/07/28 13:15:58;;;;;;;5.30;4.40;;;;;;;;;;4994677;28;20432;-69
2021/07/28 13:18:24;;;;;;;5.30;4.47;;;;;;;;;;4994995;28;20467;-69
2021/07/28 13:20:50;;;;;;;5.57;4.00;;;;;;;;;;4994451;28;21033;-69
2021/07/28 13:23:16;;;;;;;4.37;3.23;;;;;;;;;;4994621;28;20449;-69
2021/07/28 13:25:44;;;;;;;5.70;4.50;;;;;;;;;;4993732;28;20428;-69
2021/07/28 13:28:10;;;;;;;6.20;4.80;;;;;;;;;;4994462;28;20502;-69
2021/07/28 13:30:37;;;;;;;5.67;4.33;;;;;;;;;;4994660;28;20523;-69
2021/07/28 13:33:03;;;;;;;7.03;4.73;;;;;;;;;;4995011;28;20428;-69
2021/07/28 13:35:29;;;;;;;5.83;4.80;;;;;;;;;;4992197;28;20487;-68
2021/07/28 13:37:55;;;;;;;7.10;4.20;;;;;;;;;;4990832;28;20440;-69
2021/07/28 13:40:22;;;;;;;7.70;4.87;;;;;;;;;;4992390;28;20475;-69
2021/07/28 13:42:49;;;;;;;7.33;4.83;;;;;;;;;;4993461;28;20428;-69
2021/07/28 13:45:16;;;;;;;6.87;5.23;;;;;;;;;;4993989;28;20515;-69
2021/07/28 13:47:48;;;;;;;6.73;4.80;;;;;;;;;;4995027;28;20622;-69
2021/07/28 13:50:16;;;;;;;7.43;4.40;;;;;;;;;;4993277;28;20436;-69
2021/07/28 13:52:42;;;;;;;5.50;4.07;;;;;;;;;;4991610;28;20957;-69
2021/07/28 13:55:09;;;;;;;5.47;4.40;;;;;;;;;;4994223;28;20525;-69
2021/07/28 13:57:35;;;;;;;7.67;5.77;;;;;;;;;;4994104;28;20455;-69
2021/07/28 14:00:01;;;;;;;6.23;4.63;;;;;;;;;;4992998;28;20598;-70
2021/07/28 14:02:27;;;;;;;6.87;5.30;;;;;;;;;;4991847;28;20523;-70
2021/07/28 14:04:57;;;;;;;5.37;4.20;;;;;;;;;;4990719;28;20476;-69
2021/07/28 14:07:26;;;;;;;5.87;4.17;;;;;;;;;;4993958;28;20419;-69
2021/07/28 14:09:52;;;;;;;6.60;4.63;;;;;;;;;;4992288;28;20420;-69
2021/07/28 14:12:19;;;;;;;7.90;5.60;;;;;;;;;;4993907;28;20940;-69
2021/07/28 14:14:45;;;;;;;6.70;4.60;;;;;;;;;;4990509;28;20447;-69
2021/07/28 14:17:11;;;;;;;4.90;4.30;;;;;;;;;;4994352;28;20428;-68
2021/07/28 14:19:37;;;;;;;5.50;4.07;;;;;;;;;;4990903;28;20483;-69
2021/07/28 14:22:05;;;;;;;5.27;4.10;;;;;;;;;;4994499;28;20876;-69
2021/07/28 14:24:31;;;;;;;6.20;4.70;;;;;;;;;;4993929;28;20482;-69
2021/07/28 14:26:57;;;;;;;10.67;4.70;;;;;;;;;;4993822;28;20985;-69
2021/07/28 14:29:23;;;;;;;6.90;4.90;;;;;;;;;;4991830;28;20507;-69
2021/07/28 14:31:49;;;;;;;6.93;5.00;;;;;;;;;;4993577;28;20416;-69
2021/07/28 14:34:15;;;;;;;5.00;4.30;;;;;;;;;;4992147;28;20472;-70
2021/07/28 14:36:41;;;;;;;6.90;5.20;;;;;;;;;;4993056;28;20524;-69
2021/07/28 14:39:08;;;;;;;8.20;4.90;;;;;;;;;;4993014;28;20436;-69